createdAt,value
2022-10-18T00:00:26.954Z,4.18
2022-10-18T00:05:09.302Z,4.21
2022-10-18T00:10:17.812Z,4.21
2022-10-18T00:15:26.902Z,4.21
2022-10-18T00:20:35.405Z,4.21
2022-10-18T00:25:44.543Z,4.18
2022-10-18T00:30:54.289Z,4.18
2022-10-18T00:36:05.248Z,4.21
2022-10-18T00:41:22.204Z,4.21
2022-10-18T00:46:39.679Z,4.22
2022-10-18T00:51:57.257Z,4.22
2022-10-18T00:57:14.531Z,4.18
2022-10-18T01:02:32.346Z,4.18
2022-10-18T01:07:49.563Z,4.23
2022-10-18T01:13:06.217Z,4.23
2022-10-18T01:18:25.408Z,4.2
2022-10-18T01:23:41.843Z,4.2
2022-10-18T01:28:59.226Z,4.22
2022-10-18T01:34:16.617Z,4.22
2022-10-18T01:38:11.428Z,4.21
2022-10-18T01:43:21.144Z,4.21
2022-10-18T01:48:30.266Z,4.25
2022-10-18T01:53:39.393Z,4.25
2022-10-18T01:58:48.502Z,4.19
2022-10-18T02:03:57.657Z,4.21
2022-10-18T02:09:06.101Z,4.21
2022-10-18T02:14:15.865Z,4.21
2022-10-18T02:24:34.101Z,4.16
2022-10-18T02:29:43.895Z,4.16
2022-10-18T02:34:52.356Z,4.13
2022-10-18T02:40:02.192Z,4.13
2022-10-18T02:45:11.862Z,4.16
2022-10-18T02:50:20.345Z,4.16
2022-10-18T02:55:30.791Z,4.13
2022-10-18T03:00:39.218Z,4.13
2022-10-18T03:05:48.347Z,4.16
2022-10-18T03:11:33.377Z,4.16
2022-10-18T03:16:42.427Z,4.1
2022-10-18T03:21:50.909Z,4.1
2022-10-18T03:27:00.034Z,4.11
2022-10-18T03:32:09.308Z,4.11
2022-10-18T03:37:25.564Z,4.14
2022-10-18T03:42:42.847Z,4.14
2022-10-18T03:47:59.093Z,4.15
2022-10-18T03:53:16.537Z,4.15
2022-10-18T04:03:50.372Z,4.11
2022-10-18T04:08:17.009Z,4.14
2022-10-18T04:14:24.615Z,4.14
2022-10-18T04:19:41.894Z,4.16
2022-10-18T04:24:21.915Z,4.16
2022-10-18T04:29:38.069Z,4.17
2022-10-18T04:40:08.459Z,4.21
2022-10-18T04:45:24.629Z,4.21
2022-10-18T04:49:49.530Z,4.22
2022-10-18T04:54:33.785Z,4.22
2022-10-18T04:59:42.268Z,4.29
2022-10-18T05:04:50.104Z,4.31
2022-10-18T05:09:59.257Z,4.31
2022-10-18T05:15:08.982Z,4.33
2022-10-18T05:20:18.811Z,4.33
2022-10-18T05:25:29.146Z,4.42
2022-10-18T05:30:38.940Z,4.42
2022-10-18T05:35:47.395Z,4.39
2022-10-18T05:40:56.484Z,4.39
2022-10-18T05:46:07.283Z,4.46
2022-10-18T05:51:13.460Z,4.46
2022-10-18T05:56:24.546Z,4.45
2022-10-18T06:01:34.267Z,4.45
2022-10-18T06:06:44.057Z,4.45
2022-10-18T06:11:52.482Z,4.45
2022-10-18T06:17:00.977Z,4.46
2022-10-18T06:22:10.106Z,4.46
2022-10-18T06:27:19.229Z,4.47
2022-10-18T06:32:28.915Z,4.47
2022-10-18T06:37:46.384Z,4.49
2022-10-18T06:43:21.747Z,4.49
2022-10-18T06:53:40.822Z,4.48
2022-10-18T06:58:53.127Z,4.61
2022-10-18T07:04:09.725Z,4.61
2022-10-18T07:09:28.820Z,4.63
2022-10-18T07:14:52.371Z,4.63
2022-10-18T07:19:13.424Z,4.6
2022-10-18T07:24:00.831Z,4.6
2022-10-18T07:29:11.623Z,4.6
2022-10-18T07:34:20.991Z,4.6
2022-10-18T07:39:30.109Z,4.64
2022-10-18T07:44:39.232Z,4.64
2022-10-18T07:49:49.042Z,4.66
2022-10-18T07:54:58.123Z,4.66
2022-10-18T08:00:07.862Z,4.69
2022-10-18T08:05:17.927Z,4.69
2022-10-18T08:10:29.258Z,4.84
2022-10-18T08:15:45.433Z,4.91
2022-10-18T08:21:29.555Z,4.91
2022-10-18T08:26:15.818Z,5
2022-10-18T08:31:31.359Z,5
2022-10-18T08:36:46.892Z,4.96
2022-10-18T08:42:03.025Z,4.96
2022-10-18T08:47:19.187Z,5.17
2022-10-18T08:52:36.047Z,5.17
2022-10-18T08:57:50.235Z,5.24
2022-10-18T09:02:26.405Z,5.24
2022-10-18T09:08:21.949Z,5.34
2022-10-18T09:12:42.530Z,5.34
2022-10-18T09:17:59.330Z,5.39
2022-10-18T09:23:15.615Z,5.39
2022-10-18T09:28:32.439Z,5.41
2022-10-18T09:44:20.937Z,5.38
2022-10-18T09:49:37.652Z,5.28
2022-10-18T09:54:53.860Z,5.28
2022-10-18T10:00:11.167Z,5.31
2022-10-18T10:05:29.321Z,5.31
2022-10-18T10:11:03.497Z,5.26
2022-10-18T10:15:33.027Z,5.26
2022-10-18T10:19:57.271Z,5.32
2022-10-18T10:25:14.371Z,5.32
2022-10-18T10:30:14.243Z,5.38
2022-10-18T10:35:54.409Z,5.38
2022-10-18T10:40:47.751Z,5.36
2022-10-18T10:46:19.113Z,5.36
2022-10-18T10:50:45.331Z,5.4
2022-10-18T10:55:36.078Z,5.4
2022-10-18T11:00:34.746Z,5.53
2022-10-18T11:05:44.544Z,5.53
2022-10-18T11:10:54.390Z,5.56
2022-10-18T11:16:05.362Z,5.56
2022-10-18T11:19:32.041Z,5.56
2022-10-18T11:25:40.034Z,5.56
2022-10-18T11:26:09.985Z,5.56
2022-10-18T11:31:16.052Z,5.67
2022-10-18T11:37:38.807Z,5.55
2022-10-18T11:41:22.288Z,5.55
2022-10-18T11:46:31.236Z,5.35
2022-10-18T11:58:07.561Z,5.26
2022-10-18T12:17:57.610Z,5.3
2022-10-18T12:23:06.423Z,5.3
2022-10-18T12:31:55.011Z,5.32
2022-10-18T12:44:08.832Z,5.26
2022-10-18T12:48:34.424Z,5.04
2022-10-18T12:54:41.580Z,5.04
2022-10-18T12:59:59.425Z,5.09
2022-10-18T13:05:27.060Z,5.09
2022-10-18T13:26:26.859Z,4.83
2022-10-18T13:30:53.196Z,4.47
2022-10-18T13:34:30.775Z,4.47
2022-10-18T13:39:14.161Z,4.4
2022-10-18T13:44:23.899Z,4.4
2022-10-18T13:49:32.995Z,4.46
2022-10-18T13:54:42.158Z,4.46
2022-10-18T13:59:54.477Z,4.45
2022-10-18T14:05:30.447Z,4.45
2022-10-18T14:11:04.062Z,4.45
2022-10-18T14:15:48.028Z,4.45
2022-10-18T14:21:22.113Z,4.32
2022-10-18T14:26:06.927Z,4.32
2022-10-18T14:31:15.392Z,4.31
2022-10-18T14:36:24.524Z,4.31
2022-10-18T14:41:33.683Z,4.23
2022-10-18T14:46:42.762Z,4.23
2022-10-18T14:51:53.159Z,4.21
2022-10-18T14:57:02.347Z,4.21
2022-10-18T15:02:10.757Z,4.15
2022-10-18T15:07:19.875Z,4.18
2022-10-18T15:13:11.261Z,4.18
2022-10-18T15:17:39.392Z,4.17
2022-10-18T15:22:50.125Z,4.17
2022-10-18T15:27:58.315Z,4.16
2022-10-18T15:33:08.028Z,4.16
2022-10-18T15:38:17.814Z,4.14
2022-10-18T15:43:27.570Z,4.14
2022-10-18T15:48:36.678Z,4.14
2022-10-18T15:53:56.790Z,4.14
2022-10-18T15:59:13.587Z,4.16
2022-10-18T16:04:28.513Z,4.16
2022-10-18T16:09:44.627Z,4.13
2022-10-18T16:15:00.176Z,4.13
2022-10-18T16:20:15.665Z,4.12
2022-10-18T16:25:33.438Z,4.12
2022-10-18T16:30:46.063Z,4.09
2022-10-18T16:36:05.434Z,4.09
2022-10-18T16:41:20.284Z,4.11
2022-10-18T16:46:36.464Z,4.11
2022-10-18T16:51:53.270Z,4.11
2022-10-18T16:57:10.700Z,4.11
2022-10-18T17:02:25.580Z,4.1
2022-10-18T17:06:50.462Z,4.1
2022-10-18T17:11:16.735Z,4.12
2022-10-18T17:16:32.152Z,4.12
2022-10-18T17:21:48.305Z,4.14
2022-10-18T17:27:27.875Z,4.14
2022-10-18T17:32:21.288Z,4.15
2022-10-18T17:37:37.867Z,4.15
2022-10-18T17:42:52.939Z,4.1
2022-10-18T17:48:09.744Z,4.1
2022-10-18T17:53:27.045Z,4.11
2022-10-18T17:58:41.427Z,4.11
2022-10-18T18:03:59.628Z,4.12
2022-10-18T18:09:12.494Z,4.1
2022-10-18T18:14:28.629Z,4.1
2022-10-18T18:19:43.596Z,4.1
2022-10-18T18:24:08.372Z,4.1
2022-10-18T18:28:51.428Z,4.05
2022-10-18T18:33:59.902Z,4.05
2022-10-18T18:39:07.707Z,4.02
2022-10-18T18:44:16.820Z,4.02
2022-10-18T18:49:27.237Z,4.05
2022-10-18T18:54:35.705Z,4.05
2022-10-18T18:59:44.834Z,4.04
2022-10-18T19:04:54.596Z,4.04
2022-10-18T19:10:03.071Z,4.1
2022-10-18T19:15:10.922Z,4.1
2022-10-18T19:20:20.059Z,4.06
2022-10-18T19:25:30.429Z,4.06
2022-10-18T19:30:40.818Z,4.06
2022-10-18T19:35:51.219Z,4.06
2022-10-18T19:40:59.704Z,4.06
2022-10-18T19:46:08.847Z,4.06
2022-10-18T19:51:28.733Z,4.04
2022-10-18T19:56:28.996Z,4.04
2022-10-18T20:01:39.295Z,4.07
2022-10-18T20:06:51.800Z,4.07
2022-10-18T20:12:08.761Z,4.07
2022-10-18T20:17:25.408Z,4.07
2022-10-18T20:22:43.639Z,4.06
2022-10-18T20:28:00.212Z,4.06
2022-10-18T20:33:16.290Z,4.11
2022-10-18T20:38:33.732Z,4.11
2022-10-18T20:43:51.153Z,4.08
2022-10-18T20:49:08.605Z,4.08
2022-10-18T20:53:36.045Z,4.08
2022-10-18T20:58:20.341Z,4.08
2022-10-18T21:03:30.143Z,4.04
2022-10-18T21:08:39.869Z,4.04
2022-10-18T21:14:19.678Z,4.05
2022-10-18T21:19:35.862Z,4.01
2022-10-18T21:24:50.719Z,4.01
2022-10-18T21:30:06.307Z,4.02
2022-10-18T21:35:22.412Z,4.02
2022-10-18T21:40:40.533Z,4.07
2022-10-18T21:45:55.342Z,4.07
2022-10-18T21:51:10.286Z,4.04
2022-10-18T21:55:34.478Z,4.04
2022-10-18T22:00:16.563Z,4.03
2022-10-18T22:05:24.690Z,4.03
2022-10-18T22:10:32.505Z,4.02
2022-10-18T22:15:41.671Z,4.02
2022-10-18T22:20:50.745Z,4.01
2022-10-18T22:25:59.863Z,4.01
2022-10-18T22:31:09.623Z,4.01
2022-10-18T22:36:18.908Z,4.01
2022-10-18T22:41:28.506Z,3.97
2022-10-18T22:46:37.630Z,3.97
2022-10-18T22:51:48.033Z,3.98
2022-10-18T22:56:56.506Z,3.98
2022-10-18T23:02:04.976Z,3.96
2022-10-18T23:07:13.482Z,3.96
2022-10-18T23:12:22.581Z,3.92
2022-10-18T23:17:33.646Z,3.92
2022-10-18T23:22:44.605Z,3.91
2022-10-18T23:28:02.685Z,3.91
2022-10-18T23:33:20.809Z,3.95
2022-10-18T23:38:37.101Z,3.95
2022-10-18T23:43:56.935Z,3.97
2022-10-18T23:49:15.182Z,3.97
2022-10-18T23:54:31.326Z,3.97
2022-10-18T23:59:48.774Z,3.97
